createdAt,value
2019-02-24T00:01:30.053Z,103138.52
2019-02-24T00:03:59.459Z,103140.75
2019-02-24T00:06:28.920Z,103134.73
2019-02-24T00:08:58.483Z,103132.66
2019-02-24T00:11:28.172Z,103130.05
2019-02-24T00:13:57.598Z,103132.53
2019-02-24T00:16:27.141Z,103129.00
2019-02-24T00:18:56.547Z,103129.38
2019-02-24T00:21:26.026Z,103121.80
2019-02-24T00:23:55.610Z,103129.89
2019-02-24T00:26:25.068Z,103118.39
2019-02-24T00:28:54.538Z,103121.01
2019-02-24T00:31:23.966Z,103121.55
2019-02-24T00:33:53.417Z,103118.94
2019-02-24T00:36:23.919Z,103111.87
2019-02-24T00:38:53.359Z,103109.67
2019-02-24T00:41:22.807Z,103111.61
2019-02-24T00:43:52.287Z,103114.10
2019-02-24T00:46:21.826Z,103120.25
2019-02-24T00:48:51.292Z,103122.86
2019-02-24T00:51:20.938Z,103117.64
2019-02-24T00:53:50.404Z,103115.28
2019-02-24T00:56:19.922Z,103117.89
2019-02-24T00:58:49.382Z,103115.66
2019-02-24T01:01:19.108Z,103110.70
2019-02-24T01:03:48.576Z,103107.16
2019-02-24T01:06:18.110Z,103102.73
2019-02-24T01:08:47.586Z,103104.42
2019-02-24T01:11:17.058Z,103102.22
2019-02-24T01:13:46.524Z,103096.33
2019-02-24T01:16:16.454Z,103093.59
2019-02-24T01:18:45.912Z,103090.59
2019-02-24T01:21:15.310Z,103088.23
2019-02-24T01:23:44.774Z,103083.56
2019-02-24T01:26:14.235Z,103089.17
2019-02-24T01:28:43.694Z,103079.23
2019-02-24T01:31:13.221Z,103080.80
2019-02-24T01:33:42.632Z,103076.63
2019-02-24T01:36:12.108Z,103074.14
2019-02-24T01:38:41.639Z,103074.02
2019-02-24T01:41:11.155Z,103068.38
2019-02-24T01:43:40.691Z,103066.19
2019-02-24T01:46:10.142Z,103073.22
2019-02-24T01:48:39.653Z,103063.83
2019-02-24T01:51:09.446Z,103056.25
2019-02-24T01:53:38.918Z,103050.11
2019-02-24T01:56:08.473Z,103050.23
2019-02-24T01:58:37.934Z,103050.91
2019-02-24T02:01:07.620Z,103042.69
2019-02-24T02:03:37.150Z,103043.20
2019-02-24T02:06:06.563Z,103041.89
2019-02-24T02:08:36.011Z,103035.88
2019-02-24T02:11:05.489Z,103032.22
2019-02-24T02:13:34.953Z,103027.92
2019-02-24T02:16:04.378Z,103027.92
2019-02-24T02:18:33.838Z,103027.80
2019-02-24T02:21:03.389Z,103031.20
2019-02-24T02:23:32.890Z,103024.39
2019-02-24T02:26:02.373Z,103008.59
2019-02-24T02:28:31.826Z,103016.05
2019-02-24T02:31:01.279Z,103015.55
2019-02-24T02:33:30.718Z,103015.55
2019-02-24T02:36:00.290Z,103021.77
2019-02-24T02:38:29.728Z,103017.09
2019-02-24T02:40:59.501Z,103021.94
2019-02-24T02:43:28.971Z,103017.48
2019-02-24T02:45:58.463Z,103013.82
2019-02-24T02:48:27.949Z,103020.22
2019-02-24T02:50:57.389Z,103014.75
2019-02-24T02:53:26.775Z,103018.66
2019-02-24T02:55:56.227Z,103012.14
2019-02-24T02:58:25.790Z,103012.52
2019-02-24T03:00:55.238Z,103012.91
2019-02-24T03:03:25.798Z,103017.08
2019-02-24T03:05:56.854Z,103006.38
2019-02-24T03:08:27.946Z,103016.56
2019-02-24T03:10:57.379Z,103013.45
2019-02-24T03:13:27.209Z,103008.48
2019-02-24T03:15:56.614Z,103000.11
2019-02-24T03:18:26.053Z,102999.19
2019-02-24T03:20:55.537Z,102999.61
2019-02-24T03:23:25.071Z,103000.37
2019-02-24T03:25:54.496Z,103008.48
2019-02-24T03:28:23.943Z,103007.81
2019-02-24T03:30:53.366Z,103015.27
2019-02-24T03:33:22.895Z,103017.45
2019-02-24T03:35:52.338Z,103010.94
2019-02-24T03:38:21.813Z,103009.00
2019-02-24T03:40:51.269Z,103006.00
2019-02-24T03:43:20.681Z,103007.69
2019-02-24T03:45:50.129Z,103012.66
2019-02-24T03:48:19.603Z,103005.59
2019-02-24T03:50:49.081Z,103003.91
2019-02-24T03:53:18.602Z,103010.05
2019-02-24T03:55:48.139Z,103016.70
2019-02-24T03:58:17.688Z,103008.75
2019-02-24T04:00:47.160Z,103023.23
2019-02-24T04:03:16.580Z,103021.80
2019-02-24T04:05:46.032Z,103019.95
2019-02-24T04:08:15.461Z,103018.64
2019-02-24T04:10:44.935Z,103019.02
2019-02-24T04:13:14.353Z,103025.16
2019-02-24T04:15:43.802Z,103016.03
2019-02-24T04:18:13.317Z,103019.44
2019-02-24T04:20:42.775Z,103009.64
2019-02-24T04:23:12.220Z,103006.74
2019-02-24T04:25:41.621Z,103008.20
2019-02-24T04:28:11.087Z,103004.42
2019-02-24T04:30:40.505Z,103007.03
2019-02-24T04:33:09.994Z,103006.64
2019-02-24T04:35:39.396Z,103006.77
2019-02-24T04:38:09.822Z,103006.77
2019-02-24T04:40:39.270Z,103002.48
2019-02-24T04:43:08.696Z,103003.36
2019-02-24T04:45:38.150Z,103007.44
2019-02-24T04:48:07.703Z,103008.33
2019-02-24T04:50:37.165Z,103010.56
2019-02-24T04:53:06.640Z,103011.87
2019-02-24T04:55:36.083Z,103024.12
2019-02-24T04:58:05.712Z,103026.05
2019-02-24T05:00:35.127Z,103025.25
2019-02-24T05:03:04.590Z,103025.12
2019-02-24T05:05:34.060Z,103023.38
2019-02-24T05:08:04.361Z,103017.48
2019-02-24T05:10:33.840Z,103025.55
2019-02-24T05:13:03.322Z,103025.00
2019-02-24T05:15:32.779Z,103020.84
2019-02-24T05:18:02.459Z,103021.38
2019-02-24T05:20:31.915Z,103027.90
2019-02-24T05:23:01.332Z,103033.11
2019-02-24T05:25:30.788Z,103033.36
2019-02-24T05:28:01.172Z,103032.20
2019-02-24T05:30:30.636Z,103032.20
2019-02-24T05:33:00.085Z,103049.40
2019-02-24T05:35:29.487Z,103046.41
2019-02-24T05:37:58.944Z,103051.24
2019-02-24T05:40:28.347Z,103043.94
2019-02-24T05:42:57.793Z,103045.00
2019-02-24T05:45:27.195Z,103045.64
2019-02-24T05:47:56.746Z,103047.11
2019-02-24T05:50:26.368Z,103044.88
2019-02-24T05:52:55.778Z,103050.22
2019-02-24T05:55:25.186Z,103046.83
2019-02-24T05:57:54.636Z,103047.13
2019-02-24T06:00:24.041Z,103035.02
2019-02-24T06:02:53.789Z,103033.05
2019-02-24T06:05:23.201Z,103019.39
2019-02-24T06:07:52.691Z,103010.02
2019-02-24T06:10:22.123Z,103018.34
2019-02-24T06:12:51.527Z,103026.96
2019-02-24T06:15:20.980Z,103028.91
2019-02-24T06:17:50.405Z,103029.03
2019-02-24T06:20:19.865Z,103033.73
2019-02-24T06:22:49.289Z,103040.39
2019-02-24T06:25:18.749Z,103037.91
2019-02-24T06:27:48.281Z,103033.62
2019-02-24T06:30:17.745Z,103030.39
2019-02-24T06:32:47.155Z,103033.38
2019-02-24T06:35:17.589Z,103039.65
2019-02-24T06:37:46.995Z,103046.30
2019-02-24T06:40:16.442Z,103034.70
2019-02-24T06:42:45.896Z,103046.73
2019-02-24T06:45:15.359Z,103052.20
2019-02-24T06:47:44.796Z,103053.25
2019-02-24T06:50:14.347Z,103049.59
2019-02-24T06:52:43.776Z,103044.94
2019-02-24T06:55:13.218Z,103044.31
2019-02-24T06:57:42.706Z,103041.08
2019-02-24T07:00:14.413Z,103046.04
2019-02-24T07:02:43.715Z,103047.98
2019-02-24T07:05:13.167Z,103048.81
2019-02-24T07:07:42.618Z,103048.81
2019-02-24T07:10:12.057Z,103048.94
2019-02-24T07:12:41.458Z,103052.08
2019-02-24T07:15:11.033Z,103055.73
2019-02-24T07:17:40.453Z,103048.56
2019-02-24T07:20:11.776Z,103042.66
2019-02-24T07:22:41.234Z,103044.23
2019-02-24T07:25:10.646Z,103040.84
2019-02-24T07:27:40.113Z,103048.80
2019-02-24T07:30:10.262Z,103045.64
2019-02-24T07:32:39.809Z,103044.73
2019-02-24T07:35:09.217Z,103047.84
2019-02-24T07:37:38.761Z,103025.58
2019-02-24T07:40:09.223Z,103039.28
2019-02-24T07:42:38.703Z,103042.66
2019-02-24T07:45:09.171Z,103045.22
2019-02-24T07:47:38.615Z,103048.31
2019-02-24T07:50:09.371Z,103049.98
2019-02-24T07:52:38.839Z,103048.60
2019-02-24T07:55:08.346Z,103043.76
2019-02-24T07:57:37.824Z,103044.38
2019-02-24T08:00:10.481Z,103037.88
2019-02-24T08:02:40.064Z,103038.33
2019-02-24T08:05:09.539Z,103031.57
2019-02-24T08:07:38.994Z,103026.47
2019-02-24T08:10:08.663Z,103018.66
2019-02-24T08:12:38.203Z,103013.31
2019-02-24T08:15:09.053Z,103013.34
2019-02-24T08:17:38.612Z,103007.21
2019-02-24T08:20:09.582Z,103000.25
2019-02-24T08:22:39.068Z,102994.92
2019-02-24T08:25:08.759Z,102990.86
2019-02-24T08:27:39.630Z,102997.34
2019-02-24T08:30:11.499Z,102973.56
2019-02-24T08:32:40.983Z,102973.56
2019-02-24T08:35:10.669Z,102984.86
2019-02-24T08:37:40.133Z,102982.22
2019-02-24T08:40:09.902Z,102988.23
2019-02-24T08:42:39.372Z,102998.08
2019-02-24T08:45:10.371Z,102994.41
2019-02-24T08:47:40.078Z,102989.41
2019-02-24T08:50:10.814Z,102996.09
2019-02-24T08:52:40.352Z,102994.39
2019-02-24T08:55:10.829Z,102986.91
2019-02-24T08:57:40.581Z,103002.23
2019-02-24T09:00:15.299Z,103005.45
2019-02-24T09:02:44.706Z,103009.11
2019-02-24T09:05:14.188Z,103014.11
2019-02-24T09:07:43.661Z,103032.32
2019-02-24T09:10:13.083Z,103032.32
2019-02-24T09:12:42.537Z,103035.48
2019-02-24T09:15:13.352Z,103045.41
2019-02-24T09:17:42.828Z,103029.95
2019-02-24T09:20:13.132Z,103038.66
2019-02-24T09:22:42.663Z,103047.66
2019-02-24T09:25:12.110Z,103044.95
2019-02-24T09:27:41.516Z,103039.89
2019-02-24T09:30:14.226Z,103039.58
2019-02-24T09:32:43.644Z,103032.77
2019-02-24T09:35:13.098Z,103041.59
2019-02-24T09:37:42.532Z,103049.87
2019-02-24T09:40:12.864Z,103045.98
2019-02-24T09:42:42.338Z,103046.27
2019-02-24T09:45:13.046Z,103047.16
2019-02-24T09:47:46.658Z,103047.91
2019-02-24T09:50:13.636Z,103069.44
2019-02-24T09:52:43.163Z,103068.83
2019-02-24T09:55:12.645Z,103065.27
2019-02-24T09:57:42.149Z,103066.66
2019-02-24T10:00:13.668Z,103069.64
2019-02-24T10:02:43.104Z,103071.03
2019-02-24T10:05:12.682Z,103073.83
2019-02-24T10:07:42.091Z,103059.88
2019-02-24T10:10:13.372Z,103063.08
2019-02-24T10:12:42.809Z,103066.50
2019-02-24T10:15:16.261Z,103060.97
2019-02-24T10:17:45.686Z,103066.13
2019-02-24T10:20:15.239Z,103072.09
2019-02-24T10:22:44.645Z,103068.73
2019-02-24T10:25:14.119Z,103056.30
2019-02-24T10:27:43.543Z,103075.78
2019-02-24T10:30:14.865Z,103070.52
2019-02-24T10:32:44.302Z,103065.93
2019-02-24T10:35:13.731Z,103068.97
2019-02-24T10:37:43.313Z,103072.30
2019-02-24T10:40:16.713Z,103075.62
2019-02-24T10:42:46.215Z,103058.62
2019-02-24T10:45:19.713Z,103065.34
2019-02-24T10:47:49.239Z,103058.72
2019-02-24T10:50:18.742Z,103050.51
2019-02-24T10:52:49.248Z,103045.52
2019-02-24T10:55:18.767Z,103049.09
2019-02-24T10:57:48.277Z,103046.62
2019-02-24T11:00:20.582Z,103038.72
2019-02-24T11:02:50.100Z,103053.35
2019-02-24T11:05:19.631Z,103052.36
2019-02-24T11:07:49.131Z,103042.59
2019-02-24T11:10:18.641Z,103045.16
2019-02-24T11:12:48.044Z,103045.52
2019-02-24T11:15:17.473Z,103049.01
2019-02-24T11:17:46.976Z,103028.78
2019-02-24T11:20:18.323Z,103032.73
2019-02-24T11:22:47.912Z,103035.44
2019-02-24T11:25:18.286Z,103037.23
2019-02-24T11:27:47.764Z,103028.23
2019-02-24T11:30:17.167Z,103026.77
2019-02-24T11:32:46.664Z,103030.00
2019-02-24T11:35:16.198Z,103031.60
2019-02-24T11:37:45.671Z,103029.47
2019-02-24T11:40:17.784Z,103017.34
2019-02-24T11:42:47.366Z,103017.66
2019-02-24T11:45:16.853Z,103022.82
2019-02-24T11:47:46.356Z,103014.19
2019-02-24T11:50:15.863Z,103021.66
2019-02-24T11:52:46.266Z,103019.38
2019-02-24T11:55:15.765Z,103018.80
2019-02-24T11:57:45.203Z,103028.35
2019-02-24T12:00:17.904Z,103033.18
2019-02-24T12:02:47.306Z,103032.98
2019-02-24T12:05:16.822Z,103027.23
2019-02-24T12:07:46.228Z,103032.77
2019-02-24T12:10:15.832Z,103030.31
2019-02-24T12:12:45.336Z,103031.44
2019-02-24T12:15:15.385Z,103035.30
2019-02-24T12:17:44.944Z,103035.94
2019-02-24T12:20:15.157Z,103031.34
2019-02-24T12:22:44.618Z,103028.12
2019-02-24T12:25:14.108Z,103020.58
2019-02-24T12:27:43.531Z,103026.17
2019-02-24T12:30:14.486Z,103026.78
2019-02-24T12:32:43.987Z,103017.08
2019-02-24T12:35:13.495Z,103014.94
2019-02-24T12:37:43.062Z,103018.12
2019-02-24T12:40:14.029Z,103010.80
2019-02-24T12:42:43.541Z,102998.34
2019-02-24T12:45:13.196Z,102996.95
2019-02-24T12:47:42.635Z,102998.88
2019-02-24T12:50:18.734Z,103000.01
2019-02-24T12:52:48.146Z,102999.66
2019-02-24T12:55:17.717Z,102999.78
2019-02-24T12:57:47.147Z,103010.12
2019-02-24T13:00:27.933Z,103023.04
2019-02-24T13:02:57.370Z,103020.56
2019-02-24T13:05:28.647Z,103010.98
2019-02-24T13:07:59.284Z,103007.22
2019-02-24T13:10:31.314Z,103003.35
2019-02-24T13:13:02.180Z,103002.08
2019-02-24T13:15:31.743Z,103004.95
2019-02-24T13:18:01.155Z,103011.30
2019-02-24T13:20:30.716Z,103012.33
2019-02-24T13:23:00.255Z,103010.66
2019-02-24T13:25:29.821Z,103018.21
2019-02-24T13:27:59.346Z,103017.00
2019-02-24T13:30:28.848Z,103003.98
2019-02-24T13:32:58.441Z,103014.31
2019-02-24T13:35:28.092Z,103002.51
2019-02-24T13:37:58.248Z,103003.48
2019-02-24T13:40:27.771Z,103000.02
2019-02-24T13:42:57.450Z,102997.52
2019-02-24T13:45:27.038Z,102994.05
2019-02-24T13:47:57.532Z,102989.30
2019-02-24T13:50:27.196Z,102980.05
2019-02-24T13:52:56.713Z,102977.90
2019-02-24T13:55:26.298Z,102973.55
2019-02-24T13:57:55.831Z,102981.64
2019-02-24T14:00:25.825Z,102978.17
2019-02-24T14:02:55.360Z,102969.44
2019-02-24T14:05:24.877Z,102964.67
2019-02-24T14:07:54.455Z,102954.92
2019-02-24T14:10:23.855Z,102960.38
2019-02-24T14:12:53.374Z,102964.84
2019-02-24T14:15:22.854Z,102964.12
2019-02-24T14:17:52.421Z,102966.00
2019-02-24T14:20:22.011Z,102958.55
2019-02-24T14:22:51.769Z,102949.25
2019-02-24T14:25:21.295Z,102959.52
2019-02-24T14:27:50.708Z,102958.75
2019-02-24T14:30:20.114Z,102969.08
2019-02-24T14:32:49.636Z,102968.77
2019-02-24T14:35:23.562Z,102961.27
2019-02-24T14:37:53.112Z,102967.13
2019-02-24T14:40:22.838Z,102965.86
2019-02-24T14:42:52.278Z,102968.47
2019-02-24T14:45:23.886Z,102973.38
2019-02-24T14:47:53.426Z,102974.86
2019-02-24T14:50:23.087Z,102965.50
2019-02-24T14:52:52.512Z,102967.24
2019-02-24T14:55:22.130Z,102970.77
2019-02-24T14:57:51.534Z,102964.11
2019-02-24T15:00:24.819Z,102960.59
2019-02-24T15:02:54.565Z,102954.30
2019-02-24T15:05:24.200Z,102952.51
2019-02-24T15:07:53.757Z,102951.03
2019-02-24T15:10:24.665Z,102949.13
2019-02-24T15:12:54.073Z,102947.30
2019-02-24T15:15:32.902Z,102945.97
2019-02-24T15:18:00.372Z,102939.27
2019-02-24T15:20:29.812Z,102937.28
2019-02-24T15:22:59.694Z,102946.42
2019-02-24T15:25:29.094Z,102950.22
2019-02-24T15:27:58.513Z,102946.53
2019-02-24T15:30:33.428Z,102951.74
2019-02-24T15:33:03.160Z,102952.88
2019-02-24T15:35:32.575Z,102951.44
2019-02-24T15:38:02.140Z,102950.05
2019-02-24T15:40:31.575Z,102947.12
2019-02-24T15:43:01.110Z,102946.41
2019-02-24T15:45:30.535Z,102952.88
2019-02-24T15:47:59.952Z,102946.91
2019-02-24T15:50:29.572Z,102946.23
2019-02-24T15:52:59.019Z,102943.73
2019-02-24T15:55:28.502Z,102946.98
2019-02-24T15:57:58.414Z,102946.87
2019-02-24T16:00:28.026Z,102948.55
2019-02-24T16:03:01.501Z,102949.82
2019-02-24T16:05:28.851Z,102955.25
2019-02-24T16:07:58.382Z,102957.49
2019-02-24T16:10:27.911Z,102953.09
2019-02-24T16:12:57.439Z,102949.58
2019-02-24T16:15:28.943Z,102957.08
2019-02-24T16:17:58.723Z,102953.45
2019-02-24T16:20:36.282Z,102959.53
2019-02-24T16:23:05.882Z,102958.08
2019-02-24T16:25:35.354Z,102960.97
2019-02-24T16:28:05.015Z,102963.83
2019-02-24T16:30:34.488Z,102973.70
2019-02-24T16:33:10.664Z,102970.80
2019-02-24T16:35:35.950Z,102969.77
2019-02-24T16:38:05.539Z,102980.68
2019-02-24T16:40:35.090Z,102988.48
2019-02-24T16:43:04.547Z,102994.88
2019-02-24T16:45:34.225Z,102992.56
2019-02-24T16:48:04.343Z,102994.18
2019-02-24T16:50:33.936Z,102998.63
2019-02-24T16:53:04.550Z,102992.85
2019-02-24T16:55:34.116Z,102996.86
2019-02-24T16:58:04.446Z,102985.53
2019-02-24T17:00:34.069Z,102984.23
2019-02-24T17:03:04.772Z,102986.09
2019-02-24T17:05:34.308Z,102994.21
2019-02-24T17:08:04.834Z,102994.78
2019-02-24T17:10:34.367Z,102994.45
2019-02-24T17:13:04.651Z,102996.27
2019-02-24T17:15:34.060Z,103000.37
2019-02-24T17:18:04.683Z,103004.98
2019-02-24T17:20:34.281Z,103004.25
2019-02-24T17:23:04.365Z,103002.38
2019-02-24T17:25:34.076Z,102997.00
2019-02-24T17:28:04.509Z,103008.02
2019-02-24T17:30:34.313Z,103007.09
2019-02-24T17:33:04.460Z,102997.34
2019-02-24T17:35:34.073Z,102996.84
2019-02-24T17:38:04.464Z,102997.48
2019-02-24T17:40:34.071Z,102997.33
2019-02-24T17:43:04.477Z,102993.59
2019-02-24T17:45:34.129Z,102993.67
2019-02-24T17:48:04.619Z,102989.03
2019-02-24T17:50:34.185Z,102992.73
2019-02-24T17:53:04.390Z,102989.16
2019-02-24T17:55:33.988Z,102986.28
2019-02-24T17:58:04.397Z,102983.20
2019-02-24T18:00:35.870Z,102986.41
2019-02-24T18:03:05.275Z,102985.64
2019-02-24T18:05:34.834Z,103004.28
2019-02-24T18:08:04.584Z,103006.32
2019-02-24T18:10:33.987Z,103001.27
2019-02-24T18:13:04.543Z,103000.91
2019-02-24T18:15:34.079Z,103008.49
2019-02-24T18:18:04.370Z,103015.55
2019-02-24T18:20:34.063Z,103006.43
2019-02-24T18:23:03.502Z,103003.54
2019-02-24T18:25:33.147Z,103000.44
2019-02-24T18:28:02.654Z,102998.27
2019-02-24T18:30:32.350Z,102992.61
2019-02-24T18:33:01.943Z,102992.75
2019-02-24T18:35:31.571Z,102991.05
2019-02-24T18:38:01.200Z,102992.83
2019-02-24T18:40:30.610Z,102994.77
2019-02-24T18:43:00.832Z,102997.28
2019-02-24T18:45:30.552Z,102991.52
2019-02-24T18:48:00.098Z,102992.55
2019-02-24T18:50:29.675Z,102989.56
2019-02-24T18:52:59.358Z,102995.45
2019-02-24T18:55:28.853Z,102990.49
2019-02-24T18:57:58.683Z,102989.39
2019-02-24T19:00:28.323Z,102987.47
2019-02-24T19:02:57.800Z,102982.02
2019-02-24T19:05:27.361Z,102987.42
2019-02-24T19:07:56.792Z,102984.39
2019-02-24T19:10:26.229Z,102990.80
2019-02-24T19:12:55.794Z,102996.39
2019-02-24T19:15:25.812Z,102996.08
2019-02-24T19:17:55.223Z,103000.73
2019-02-24T19:20:25.395Z,102999.15
2019-02-24T19:22:55.045Z,103006.34
2019-02-24T19:25:24.579Z,103008.71
2019-02-24T19:27:54.064Z,103012.35
2019-02-24T19:30:23.964Z,103008.92
2019-02-24T19:32:53.454Z,103005.19
2019-02-24T19:35:23.187Z,103006.01
2019-02-24T19:37:52.839Z,103011.30
2019-02-24T19:40:22.595Z,103001.38
2019-02-24T19:42:52.158Z,103001.98
2019-02-24T19:45:24.766Z,102994.11
2019-02-24T19:47:54.718Z,102981.06
2019-02-24T19:50:24.721Z,102976.31
2019-02-24T19:52:54.905Z,102973.80
2019-02-24T19:55:24.370Z,102982.70
2019-02-24T19:57:57.499Z,102992.60
2019-02-24T20:00:27.795Z,102989.48
2019-02-24T20:02:57.613Z,102989.17
2019-02-24T20:05:27.518Z,102984.41
2019-02-24T20:07:57.570Z,102984.61
2019-02-24T20:10:28.628Z,102988.77
2019-02-24T20:12:59.063Z,102989.37
2019-02-24T20:15:29.202Z,102988.87
2019-02-24T20:17:59.192Z,102989.58
2019-02-24T20:20:28.937Z,102997.67
2019-02-24T20:22:58.801Z,103002.34
2019-02-24T20:25:28.596Z,103003.34
2019-02-24T20:27:58.065Z,103011.13
2019-02-24T20:30:29.579Z,103010.31
2019-02-24T20:32:59.521Z,103008.28
2019-02-24T20:35:29.208Z,103011.94
2019-02-24T20:37:59.219Z,103015.98
2019-02-24T20:40:28.900Z,103010.92
2019-02-24T20:42:58.327Z,103020.81
2019-02-24T20:45:29.410Z,103027.30
2019-02-24T20:47:59.462Z,103025.75
2019-02-24T20:50:31.258Z,103017.66
2019-02-24T20:53:01.300Z,103016.64
2019-02-24T20:55:30.902Z,103020.78
2019-02-24T20:58:00.325Z,103034.52
2019-02-24T21:00:35.704Z,103033.53
2019-02-24T21:03:05.428Z,103035.23
2019-02-24T21:05:35.461Z,103036.31
2019-02-24T21:08:05.183Z,103030.08
2019-02-24T21:10:34.840Z,103030.13
2019-02-24T21:13:04.541Z,103023.27
2019-02-24T21:15:34.495Z,103018.20
2019-02-24T21:18:04.989Z,103021.80
2019-02-24T21:20:35.126Z,103028.06
2019-02-24T21:23:04.814Z,103027.44
2019-02-24T21:25:34.285Z,103031.57
2019-02-24T21:28:04.529Z,103029.52
2019-02-24T21:30:34.011Z,103028.64
2019-02-24T21:33:04.507Z,103026.20
2019-02-24T21:35:34.093Z,103023.14
2019-02-24T21:38:05.220Z,103029.61
2019-02-24T21:40:34.928Z,103035.16
2019-02-24T21:43:04.602Z,103034.66
2019-02-24T21:45:34.988Z,103038.07
2019-02-24T21:48:04.860Z,103039.70
2019-02-24T21:50:34.418Z,103052.31
2019-02-24T21:53:04.459Z,103057.07
2019-02-24T21:55:33.984Z,103061.66
2019-02-24T21:58:04.522Z,103066.80
2019-02-24T22:00:33.932Z,103071.23
2019-02-24T22:03:04.893Z,103073.95
2019-02-24T22:05:34.432Z,103069.06
2019-02-24T22:08:04.838Z,103068.60
2019-02-24T22:10:34.334Z,103067.47
2019-02-24T22:13:04.411Z,103071.30
2019-02-24T22:15:33.880Z,103068.97
2019-02-24T22:18:04.438Z,103067.83
2019-02-24T22:20:33.870Z,103057.91
2019-02-24T22:23:04.384Z,103057.69
2019-02-24T22:25:33.787Z,103056.95
2019-02-24T22:28:21.694Z,103062.66
2019-02-24T22:30:51.358Z,103061.70
2019-02-24T22:33:20.804Z,103060.95
2019-02-24T22:35:50.906Z,103049.86
2019-02-24T22:38:20.392Z,103051.45
2019-02-24T22:40:54.402Z,103052.55
2019-02-24T22:43:20.967Z,103050.98
2019-02-24T22:45:50.463Z,103042.52
2019-02-24T22:48:21.834Z,103044.61
2019-02-24T22:50:51.319Z,103042.58
2019-02-24T22:53:20.851Z,103041.84
2019-02-24T22:55:50.270Z,103047.36
2019-02-24T22:58:20.283Z,103042.50
2019-02-24T23:00:53.881Z,103039.38
2019-02-24T23:03:28.702Z,103045.12
2019-02-24T23:05:58.943Z,103049.17
2019-02-24T23:08:28.579Z,103058.35
2019-02-24T23:10:58.015Z,103052.61
2019-02-24T23:13:27.430Z,103052.50
2019-02-24T23:15:56.954Z,103053.28
2019-02-24T23:18:26.422Z,103051.86
2019-02-24T23:20:56.070Z,103053.45
2019-02-24T23:23:25.505Z,103047.17
2019-02-24T23:25:54.942Z,103044.16
2019-02-24T23:28:24.536Z,103039.31
2019-02-24T23:30:54.031Z,103037.50
2019-02-24T23:33:23.495Z,103035.66
2019-02-24T23:35:53.061Z,103032.04
2019-02-24T23:38:22.513Z,103029.70
2019-02-24T23:40:51.947Z,103026.05
2019-02-24T23:43:21.419Z,103036.42
2019-02-24T23:45:50.843Z,103032.66
2019-02-24T23:48:20.375Z,103028.86
2019-02-24T23:50:49.775Z,103027.87
2019-02-24T23:53:19.279Z,103014.61
2019-02-24T23:55:48.816Z,103010.19
2019-02-24T23:58:18.286Z,103010.86
